createdAt,value
2019-05-05T00:00:21.994Z,4.02
2019-05-05T00:01:22.004Z,4.00
2019-05-05T00:02:21.966Z,4.04
2019-05-05T00:03:21.955Z,4.04
2019-05-05T00:04:24.180Z,3.99
2019-05-05T00:05:21.936Z,3.96
2019-05-05T00:06:21.939Z,3.99
2019-05-05T00:07:21.916Z,3.95
2019-05-05T00:08:21.903Z,3.93
2019-05-05T00:09:21.942Z,3.93
2019-05-05T00:10:21.886Z,3.99
2019-05-05T00:11:21.874Z,3.99
2019-05-05T00:12:21.861Z,3.95
2019-05-05T00:13:21.850Z,3.96
2019-05-05T00:14:21.848Z,3.98
2019-05-05T00:15:21.851Z,3.88
2019-05-05T00:16:21.817Z,3.89
2019-05-05T00:17:21.805Z,3.88
2019-05-05T00:18:21.802Z,3.86
2019-05-05T00:19:30.646Z,3.84
2019-05-05T00:20:24.969Z,3.80
2019-05-05T00:21:21.780Z,3.75
2019-05-05T00:22:21.754Z,3.80
2019-05-05T00:23:21.746Z,3.78
2019-05-05T00:24:21.741Z,3.75
2019-05-05T00:25:21.721Z,3.75
2019-05-05T00:26:21.712Z,3.80
2019-05-05T00:27:21.720Z,3.78
2019-05-05T00:28:21.694Z,3.81
2019-05-05T00:29:21.689Z,3.81
2019-05-05T00:30:21.670Z,3.82
2019-05-05T00:31:21.659Z,3.82
2019-05-05T00:32:21.653Z,3.82
2019-05-05T00:33:21.657Z,3.88
2019-05-05T00:34:21.668Z,3.84
2019-05-05T00:35:21.622Z,3.96
2019-05-05T00:36:21.607Z,3.98
2019-05-05T00:37:21.595Z,3.99
2019-05-05T00:38:21.588Z,3.93
2019-05-05T00:39:21.601Z,3.95
2019-05-05T00:40:21.563Z,4.00
2019-05-05T00:41:21.563Z,3.96
2019-05-05T00:42:21.542Z,3.93
2019-05-05T00:43:21.530Z,3.96
2019-05-05T00:44:21.530Z,3.96
2019-05-05T00:45:21.546Z,3.95
2019-05-05T00:46:21.513Z,3.99
2019-05-05T00:47:21.523Z,3.92
2019-05-05T00:48:21.486Z,3.92
2019-05-05T00:49:21.475Z,3.98
2019-05-05T00:50:21.456Z,3.95
2019-05-05T00:51:21.446Z,3.93
2019-05-05T00:52:21.470Z,4.00
2019-05-05T00:53:21.422Z,4.00
2019-05-05T00:54:21.585Z,4.16
2019-05-05T00:55:21.399Z,4.07
2019-05-05T00:56:21.391Z,4.02
2019-05-05T00:57:21.385Z,4.13
2019-05-05T00:58:21.386Z,3.99
2019-05-05T00:59:21.361Z,4.02
2019-05-05T01:00:21.361Z,3.98
2019-05-05T01:01:21.335Z,3.99
2019-05-05T01:02:21.326Z,3.98
2019-05-05T01:03:21.311Z,3.96
2019-05-05T01:04:21.331Z,3.98
2019-05-05T01:05:21.302Z,3.95
2019-05-05T01:06:21.280Z,4.02
2019-05-05T01:07:21.271Z,3.99
2019-05-05T01:08:21.258Z,4.00
2019-05-05T01:09:21.250Z,4.02
2019-05-05T01:10:21.264Z,3.99
2019-05-05T01:11:21.225Z,4.02
2019-05-05T01:12:21.216Z,4.06
2019-05-05T01:13:21.205Z,4.08
2019-05-05T01:14:21.192Z,4.04
2019-05-05T01:15:21.193Z,3.98
2019-05-05T01:16:21.172Z,4.04
2019-05-05T01:17:21.180Z,3.95
2019-05-05T01:18:21.150Z,3.98
2019-05-05T01:19:21.138Z,3.92
2019-05-05T01:20:21.143Z,3.95
2019-05-05T01:21:21.122Z,3.92
2019-05-05T01:22:21.107Z,3.89
2019-05-05T01:23:21.127Z,3.82
2019-05-05T01:24:21.090Z,3.75
2019-05-05T01:25:21.084Z,3.80
2019-05-05T01:26:21.063Z,3.72
2019-05-05T01:27:21.052Z,3.75
2019-05-05T01:28:21.080Z,3.70
2019-05-05T01:29:21.058Z,3.63
2019-05-05T01:30:21.031Z,3.62
2019-05-05T01:31:21.011Z,3.74
2019-05-05T01:32:21.024Z,3.74
2019-05-05T01:33:20.989Z,3.64
2019-05-05T01:34:20.977Z,3.64
2019-05-05T01:35:21.007Z,3.60
2019-05-05T01:36:20.959Z,3.63
2019-05-05T01:37:20.944Z,3.68
2019-05-05T01:38:20.934Z,3.72
2019-05-05T01:39:20.922Z,3.81
2019-05-05T01:40:20.944Z,3.72
2019-05-05T01:41:20.909Z,3.78
2019-05-05T01:42:20.890Z,3.75
2019-05-05T01:43:20.879Z,3.72
2019-05-05T01:44:20.868Z,3.77
2019-05-05T01:45:20.877Z,3.80
2019-05-05T01:46:20.867Z,3.78
2019-05-05T01:47:20.839Z,3.84
2019-05-05T01:48:20.824Z,3.86
2019-05-05T01:49:20.815Z,3.75
2019-05-05T01:50:21.297Z,3.78
2019-05-05T01:51:20.806Z,3.82
2019-05-05T01:52:20.814Z,3.77
2019-05-05T01:53:20.772Z,3.78
2019-05-05T01:54:20.767Z,3.77
2019-05-05T01:55:20.770Z,3.80
2019-05-05T01:56:20.771Z,3.89
2019-05-05T01:57:20.729Z,3.78
2019-05-05T01:58:20.753Z,3.77
2019-05-05T01:59:20.741Z,3.86
2019-05-05T02:00:20.706Z,3.78
2019-05-05T02:01:20.690Z,3.80
2019-05-05T02:02:20.694Z,3.92
2019-05-05T02:03:20.664Z,3.86
2019-05-05T02:04:20.675Z,3.82
2019-05-05T02:05:20.658Z,3.81
2019-05-05T02:06:20.632Z,3.81
2019-05-05T02:07:20.621Z,3.74
2019-05-05T02:08:20.610Z,3.75
2019-05-05T02:09:20.608Z,3.84
2019-05-05T02:10:20.611Z,3.75
2019-05-05T02:11:20.592Z,3.75
2019-05-05T02:12:20.566Z,3.88
2019-05-05T02:13:20.557Z,3.78
2019-05-05T02:14:20.548Z,3.77
2019-05-05T02:15:20.567Z,3.82
2019-05-05T02:16:20.589Z,3.93
2019-05-05T02:17:20.583Z,3.81
2019-05-05T02:18:20.506Z,3.90
2019-05-05T02:19:20.507Z,3.93
2019-05-05T02:20:28.901Z,3.93
2019-05-05T02:21:21.480Z,3.95
2019-05-05T02:22:20.463Z,3.92
2019-05-05T02:23:20.469Z,3.89
2019-05-05T02:24:20.449Z,3.80
2019-05-05T02:25:20.427Z,3.78
2019-05-05T02:26:20.438Z,3.81
2019-05-05T02:27:20.407Z,3.81
2019-05-05T02:28:20.398Z,3.81
2019-05-05T02:29:20.413Z,3.89
2019-05-05T02:30:20.375Z,3.81
2019-05-05T02:31:20.379Z,3.95
2019-05-05T02:32:20.366Z,3.84
2019-05-05T02:33:20.343Z,3.86
2019-05-05T02:34:20.331Z,3.90
2019-05-05T02:35:20.389Z,3.88
2019-05-05T02:36:20.321Z,3.78
2019-05-05T02:37:20.307Z,3.74
2019-05-05T02:38:20.287Z,3.82
2019-05-05T02:39:20.283Z,3.78
2019-05-05T02:40:20.274Z,3.84
2019-05-05T02:41:20.310Z,3.80
2019-05-05T02:42:20.250Z,3.75
2019-05-05T02:43:20.237Z,3.74
2019-05-05T02:44:20.231Z,3.72
2019-05-05T02:45:20.213Z,3.80
2019-05-05T02:46:20.214Z,3.78
2019-05-05T02:47:20.222Z,3.63
2019-05-05T02:48:20.181Z,3.64
2019-05-05T02:49:20.167Z,3.70
2019-05-05T02:50:20.159Z,3.70
2019-05-05T02:51:20.159Z,3.72
2019-05-05T02:52:20.136Z,3.71
2019-05-05T02:53:20.154Z,3.72
2019-05-05T02:54:20.116Z,3.75
2019-05-05T02:55:20.109Z,3.75
2019-05-05T02:56:20.106Z,3.81
2019-05-05T02:57:20.081Z,3.75
2019-05-05T02:58:20.072Z,3.84
2019-05-05T02:59:20.067Z,3.74
2019-05-05T03:00:20.051Z,3.80
2019-05-05T03:01:20.049Z,3.80
2019-05-05T03:02:20.030Z,3.75
2019-05-05T03:03:20.019Z,3.81
2019-05-05T03:04:20.026Z,3.84
2019-05-05T03:05:20.011Z,3.88
2019-05-05T03:06:19.997Z,3.82
2019-05-05T03:07:19.975Z,3.86
2019-05-05T03:08:19.963Z,3.92
2019-05-05T03:09:19.954Z,3.89
2019-05-05T03:10:19.966Z,3.95
2019-05-05T03:11:19.955Z,3.95
2019-05-05T03:12:19.943Z,3.93
2019-05-05T03:13:19.912Z,3.98
2019-05-05T03:14:19.905Z,3.95
2019-05-05T03:15:19.911Z,3.96
2019-05-05T03:16:19.903Z,3.95
2019-05-05T03:17:19.876Z,3.98
2019-05-05T03:18:19.866Z,3.96
2019-05-05T03:19:19.846Z,3.92
2019-05-05T03:20:19.836Z,3.96
2019-05-05T03:21:19.842Z,3.86
2019-05-05T03:22:19.821Z,3.88
2019-05-05T03:23:19.804Z,3.95
2019-05-05T03:24:19.793Z,3.86
2019-05-05T03:25:19.783Z,3.93
2019-05-05T03:26:19.791Z,3.93
2019-05-05T03:27:19.769Z,3.98
2019-05-05T03:28:19.783Z,3.93
2019-05-05T03:29:19.738Z,3.92
2019-05-05T03:30:19.729Z,3.80
2019-05-05T03:31:19.717Z,3.86
2019-05-05T03:32:19.728Z,3.75
2019-05-05T03:33:19.698Z,3.78
2019-05-05T03:34:19.703Z,3.80
2019-05-05T03:35:19.678Z,3.89
2019-05-05T03:36:19.663Z,3.75
2019-05-05T03:37:19.664Z,3.75
2019-05-05T03:38:19.643Z,3.77
2019-05-05T03:39:19.661Z,3.75
2019-05-05T03:40:19.691Z,3.84
2019-05-05T03:41:19.614Z,3.80
2019-05-05T03:42:19.607Z,3.75
2019-05-05T03:43:19.590Z,3.78
2019-05-05T03:44:19.599Z,3.81
2019-05-05T03:45:19.568Z,3.68
2019-05-05T03:46:19.565Z,3.74
2019-05-05T03:47:19.558Z,3.63
2019-05-05T03:48:19.535Z,3.63
2019-05-05T03:49:19.524Z,3.60
2019-05-05T03:50:19.512Z,3.56
2019-05-05T03:51:21.185Z,3.52
2019-05-05T03:52:19.499Z,3.53
2019-05-05T03:53:19.483Z,3.50
2019-05-05T03:54:19.483Z,3.42
2019-05-05T03:55:19.457Z,3.34
2019-05-05T03:56:19.447Z,3.25
2019-05-05T03:57:19.444Z,3.07
2019-05-05T03:58:19.427Z,2.98
2019-05-05T03:59:19.450Z,2.89
2019-05-05T04:00:19.405Z,2.80
2019-05-05T04:01:19.392Z,2.81
2019-05-05T04:02:19.398Z,2.81
2019-05-05T04:03:19.395Z,2.66
2019-05-05T04:04:19.360Z,2.58
2019-05-05T04:05:19.366Z,2.50
2019-05-05T04:06:19.342Z,2.63
2019-05-05T04:07:19.342Z,2.63
2019-05-05T04:08:19.321Z,2.59
2019-05-05T04:09:19.308Z,2.58
2019-05-05T04:10:19.302Z,2.56
2019-05-05T04:11:19.299Z,2.77
2019-05-05T04:12:19.289Z,2.74
2019-05-05T04:13:19.268Z,2.77
2019-05-05T04:14:19.258Z,2.86
2019-05-05T04:15:19.250Z,2.87
2019-05-05T04:16:19.246Z,2.90
2019-05-05T04:17:19.279Z,2.95
2019-05-05T04:18:19.219Z,3.01
2019-05-05T04:19:19.210Z,2.94
2019-05-05T04:20:19.200Z,3.07
2019-05-05T04:21:30.300Z,3.10
2019-05-05T04:22:20.191Z,3.07
2019-05-05T04:23:19.179Z,3.07
2019-05-05T04:24:19.157Z,3.05
2019-05-05T04:25:19.145Z,3.07
2019-05-05T04:26:19.135Z,3.01
2019-05-05T04:27:19.143Z,3.01
2019-05-05T04:28:19.113Z,3.05
2019-05-05T04:29:19.117Z,3.04
2019-05-05T04:30:19.099Z,3.02
2019-05-05T04:31:19.084Z,3.12
2019-05-05T04:32:19.083Z,3.08
2019-05-05T04:33:19.060Z,3.07
2019-05-05T04:34:19.058Z,2.99
2019-05-05T04:35:19.045Z,2.98
2019-05-05T04:36:19.056Z,2.87
2019-05-05T04:37:19.200Z,2.83
2019-05-05T04:38:19.007Z,2.90
2019-05-05T04:39:18.998Z,2.92
2019-05-05T04:40:19.022Z,2.84
2019-05-05T04:41:18.976Z,2.92
2019-05-05T04:42:18.966Z,2.92
2019-05-05T04:43:18.965Z,2.90
2019-05-05T04:44:18.946Z,2.89
2019-05-05T04:45:18.949Z,2.95
2019-05-05T04:46:18.927Z,2.97
2019-05-05T04:47:18.917Z,2.95
2019-05-05T04:48:18.924Z,2.95
2019-05-05T04:49:18.898Z,2.94
2019-05-05T04:50:18.888Z,2.98
2019-05-05T04:51:18.884Z,3.08
2019-05-05T04:52:18.869Z,3.01
2019-05-05T04:53:18.865Z,3.13
2019-05-05T04:54:18.904Z,3.17
2019-05-05T04:55:18.838Z,3.15
2019-05-05T04:56:18.836Z,3.20
2019-05-05T04:57:18.837Z,3.26
2019-05-05T04:58:18.814Z,3.26
2019-05-05T04:59:18.804Z,3.33
2019-05-05T05:00:18.784Z,3.41
2019-05-05T05:01:18.770Z,3.39
2019-05-05T05:02:18.761Z,3.34
2019-05-05T05:03:18.786Z,3.37
2019-05-05T05:04:18.743Z,3.42
2019-05-05T05:05:18.733Z,3.37
2019-05-05T05:06:18.722Z,3.33
2019-05-05T05:07:18.724Z,3.34
2019-05-05T05:08:19.061Z,3.46
2019-05-05T05:09:18.721Z,3.54
2019-05-05T05:10:18.745Z,3.46
2019-05-05T05:11:18.670Z,3.56
2019-05-05T05:12:18.663Z,3.54
2019-05-05T05:13:18.657Z,3.54
2019-05-05T05:14:18.638Z,3.57
2019-05-05T05:15:18.629Z,3.59
2019-05-05T05:16:18.653Z,3.56
2019-05-05T05:17:19.801Z,3.62
2019-05-05T05:18:18.608Z,3.54
2019-05-05T05:19:18.603Z,3.52
2019-05-05T05:20:18.597Z,3.54
2019-05-05T05:21:18.567Z,3.56
2019-05-05T05:22:18.597Z,3.54
2019-05-05T05:23:18.556Z,3.54
2019-05-05T05:24:18.536Z,3.52
2019-05-05T05:25:18.530Z,3.52
2019-05-05T05:26:18.517Z,3.59
2019-05-05T05:27:18.520Z,3.57
2019-05-05T05:28:18.551Z,3.63
2019-05-05T05:29:18.503Z,3.63
2019-05-05T05:30:18.475Z,3.70
2019-05-05T05:31:18.464Z,3.63
2019-05-05T05:32:18.463Z,3.72
2019-05-05T05:33:18.442Z,3.64
2019-05-05T05:34:18.475Z,3.64
2019-05-05T05:35:18.417Z,3.77
2019-05-05T05:36:18.407Z,3.70
2019-05-05T05:37:18.399Z,3.72
2019-05-05T05:38:18.393Z,3.77
2019-05-05T05:39:18.386Z,3.78
2019-05-05T05:40:18.413Z,3.78
2019-05-05T05:41:18.356Z,3.88
2019-05-05T05:42:18.345Z,3.89
2019-05-05T05:43:18.331Z,3.90
2019-05-05T05:44:18.330Z,3.95
2019-05-05T05:45:18.313Z,3.92
2019-05-05T05:46:18.336Z,3.99
2019-05-05T05:47:18.294Z,4.06
2019-05-05T05:48:18.277Z,4.13
2019-05-05T05:49:18.275Z,4.06
2019-05-05T05:50:18.257Z,4.08
2019-05-05T05:51:19.453Z,4.11
2019-05-05T05:52:19.164Z,4.04
2019-05-05T05:53:18.223Z,4.13
2019-05-05T05:54:18.222Z,4.06
2019-05-05T05:55:18.206Z,4.10
2019-05-05T05:56:18.199Z,4.14
2019-05-05T05:57:18.182Z,4.14
2019-05-05T05:58:18.224Z,4.14
2019-05-05T05:59:18.168Z,4.14
2019-05-05T06:00:18.150Z,4.07
2019-05-05T06:01:18.137Z,4.06
2019-05-05T06:02:18.185Z,4.00
2019-05-05T06:03:18.121Z,4.11
2019-05-05T06:04:18.114Z,4.14
2019-05-05T06:05:18.121Z,4.13
2019-05-05T06:06:18.085Z,4.11
2019-05-05T06:07:18.071Z,4.17
2019-05-05T06:08:18.061Z,4.16
2019-05-05T06:09:18.063Z,4.16
2019-05-05T06:10:24.265Z,4.16
2019-05-05T06:11:19.067Z,4.18
2019-05-05T06:12:18.019Z,4.14
2019-05-05T06:13:18.010Z,4.18
2019-05-05T06:14:18.094Z,4.18
2019-05-05T06:15:17.988Z,4.11
2019-05-05T06:16:17.981Z,4.20
2019-05-05T06:17:18.068Z,4.35
2019-05-05T06:18:17.960Z,4.36
2019-05-05T06:19:17.954Z,4.28
2019-05-05T06:20:17.986Z,4.31
2019-05-05T06:21:17.924Z,4.26
2019-05-05T06:22:28.607Z,4.24
2019-05-05T06:23:18.928Z,4.14
2019-05-05T06:24:17.918Z,4.11
2019-05-05T06:25:17.884Z,4.14
2019-05-05T06:26:17.879Z,4.18
2019-05-05T06:27:17.862Z,4.14
2019-05-05T06:28:17.960Z,4.16
2019-05-05T06:29:17.847Z,4.11
2019-05-05T06:30:17.839Z,4.10
2019-05-05T06:31:17.820Z,4.10
2019-05-05T06:32:17.810Z,4.02
2019-05-05T06:33:17.821Z,4.06
2019-05-05T06:34:17.791Z,4.08
2019-05-05T06:35:17.846Z,4.13
2019-05-05T06:36:17.775Z,4.11
2019-05-05T06:37:17.777Z,4.13
2019-05-05T06:38:17.757Z,4.21
2019-05-05T06:39:17.772Z,4.24
2019-05-05T06:40:17.798Z,4.36
2019-05-05T06:41:17.799Z,4.24
2019-05-05T06:42:17.704Z,4.34
2019-05-05T06:43:17.702Z,4.38
2019-05-05T06:44:17.689Z,4.35
2019-05-05T06:45:17.694Z,4.38
2019-05-05T06:46:17.675Z,4.46
2019-05-05T06:47:17.696Z,4.59
2019-05-05T06:48:17.643Z,4.44
2019-05-05T06:49:17.630Z,4.53
2019-05-05T06:50:17.630Z,4.44
2019-05-05T06:51:17.614Z,4.53
2019-05-05T06:52:17.601Z,4.61
2019-05-05T06:53:17.611Z,4.61
2019-05-05T06:54:17.579Z,4.67
2019-05-05T06:55:17.579Z,4.64
2019-05-05T06:56:17.556Z,4.69
2019-05-05T06:57:17.550Z,4.71
2019-05-05T06:58:17.536Z,4.77
2019-05-05T06:59:17.551Z,4.90
2019-05-05T07:00:17.547Z,5.05
2019-05-05T07:01:17.511Z,5.08
2019-05-05T07:02:17.498Z,5.11
2019-05-05T07:03:17.493Z,5.22
2019-05-05T07:04:17.476Z,5.20
2019-05-05T07:05:17.540Z,5.27
2019-05-05T07:06:17.455Z,5.38
2019-05-05T07:07:17.450Z,5.42
2019-05-05T07:08:17.437Z,5.52
2019-05-05T07:09:17.422Z,5.74
2019-05-05T07:10:17.424Z,5.81
2019-05-05T07:11:17.427Z,5.99
2019-05-05T07:12:17.437Z,6.32
2019-05-05T07:13:17.377Z,6.35
2019-05-05T07:14:17.368Z,6.43
2019-05-05T07:15:17.407Z,6.55
2019-05-05T07:16:17.350Z,7.27
2019-05-05T07:17:17.363Z,7.70
2019-05-05T07:18:17.357Z,7.54
2019-05-05T07:19:17.312Z,8.45
2019-05-05T07:20:17.350Z,8.13
2019-05-05T07:21:17.313Z,8.68
2019-05-05T07:22:17.788Z,8.52
2019-05-05T07:23:17.271Z,8.13
2019-05-05T07:24:17.268Z,8.36
2019-05-05T07:25:17.288Z,8.61
2019-05-05T07:26:17.247Z,8.28
2019-05-05T07:27:17.226Z,7.76
2019-05-05T07:28:17.219Z,8.65
2019-05-05T07:29:18.152Z,9.01
2019-05-05T07:30:17.196Z,8.49
2019-05-05T07:31:17.225Z,8.09
2019-05-05T07:32:17.172Z,7.73
2019-05-05T07:33:17.164Z,7.67
2019-05-05T07:34:17.152Z,7.29
2019-05-05T07:35:17.154Z,6.54
2019-05-05T07:36:17.150Z,6.53
2019-05-05T07:37:17.180Z,6.51
2019-05-05T07:38:17.109Z,6.64
2019-05-05T07:39:17.103Z,6.76
2019-05-05T07:40:17.089Z,6.79
2019-05-05T07:41:17.088Z,6.61
2019-05-05T07:42:17.067Z,6.97
2019-05-05T07:43:17.082Z,6.48
2019-05-05T07:44:28.308Z,6.46
2019-05-05T07:45:22.832Z,6.24
2019-05-05T07:46:18.037Z,6.05
2019-05-05T07:47:17.014Z,6.11
2019-05-05T07:48:17.043Z,6.42
2019-05-05T07:49:17.003Z,6.21
2019-05-05T07:50:28.564Z,6.83
2019-05-05T07:51:17.985Z,7.57
2019-05-05T07:52:17.032Z,7.37
2019-05-05T07:53:17.994Z,8.17
2019-05-05T07:54:16.989Z,8.71
2019-05-05T07:55:16.950Z,9.08
2019-05-05T07:56:16.935Z,9.10
2019-05-05T07:57:16.907Z,8.68
2019-05-05T07:58:16.898Z,8.57
2019-05-05T07:59:16.884Z,8.67
2019-05-05T08:00:16.899Z,8.91
2019-05-05T08:01:16.876Z,8.55
2019-05-05T08:02:16.872Z,8.65
2019-05-05T08:03:16.843Z,8.88
2019-05-05T08:04:16.842Z,9.65
2019-05-05T08:05:16.823Z,10.18
2019-05-05T08:06:16.949Z,10.10
2019-05-05T08:07:16.810Z,9.62
2019-05-05T08:08:16.798Z,9.37
2019-05-05T08:09:16.784Z,8.89
2019-05-05T08:10:16.825Z,8.57
2019-05-05T08:11:16.811Z,7.71
2019-05-05T08:12:16.745Z,7.57
2019-05-05T08:13:16.742Z,7.47
2019-05-05T08:14:16.725Z,7.54
2019-05-05T08:15:16.728Z,7.44
2019-05-05T08:16:16.711Z,7.27
2019-05-05T08:17:16.712Z,7.47
2019-05-05T08:18:16.682Z,7.50
2019-05-05T08:19:16.729Z,8.00
2019-05-05T08:20:19.339Z,9.22
2019-05-05T08:21:16.658Z,9.67
2019-05-05T08:22:16.644Z,9.55
2019-05-05T08:23:29.081Z,9.71
2019-05-05T08:24:17.617Z,9.89
2019-05-05T08:25:16.642Z,9.44
2019-05-05T08:26:16.604Z,8.85
2019-05-05T08:27:16.592Z,8.73
2019-05-05T08:28:16.579Z,8.43
2019-05-05T08:29:16.561Z,8.14
2019-05-05T08:30:16.562Z,7.95
2019-05-05T08:31:16.599Z,7.89
2019-05-05T08:32:16.544Z,7.73
2019-05-05T08:33:16.548Z,7.89
2019-05-05T08:34:16.535Z,7.92
2019-05-05T08:35:16.498Z,7.96
2019-05-05T08:36:16.525Z,7.85
2019-05-05T08:37:16.477Z,8.09
2019-05-05T08:38:16.487Z,7.99
2019-05-05T08:39:16.456Z,7.96
2019-05-05T08:40:16.446Z,7.89
2019-05-05T08:41:16.439Z,8.03
2019-05-05T08:42:16.450Z,8.07
2019-05-05T08:43:16.430Z,8.03
2019-05-05T08:44:18.138Z,7.89
2019-05-05T08:45:16.413Z,7.48
2019-05-05T08:46:16.380Z,7.57
2019-05-05T08:47:16.385Z,7.86
2019-05-05T08:48:16.364Z,7.81
2019-05-05T08:49:16.348Z,8.09
2019-05-05T08:50:16.344Z,8.31
2019-05-05T08:51:16.335Z,8.22
2019-05-05T08:52:16.332Z,8.32
2019-05-05T08:53:16.309Z,8.52
2019-05-05T08:54:16.297Z,8.67
2019-05-05T08:55:16.298Z,8.73
2019-05-05T08:56:16.275Z,8.52
2019-05-05T08:57:16.279Z,8.29
2019-05-05T08:58:16.270Z,8.46
2019-05-05T08:59:16.263Z,8.57
2019-05-05T09:00:16.232Z,8.86
2019-05-05T09:01:16.222Z,9.86
2019-05-05T09:02:16.219Z,10.04
2019-05-05T09:03:16.231Z,10.13
2019-05-05T09:04:16.189Z,10.22
2019-05-05T09:05:16.178Z,9.93
2019-05-05T09:06:16.167Z,10.06
2019-05-05T09:07:16.170Z,10.17
2019-05-05T09:08:16.147Z,10.26
2019-05-05T09:09:16.153Z,10.55
2019-05-05T09:10:16.126Z,10.28
2019-05-05T09:11:16.124Z,10.17
2019-05-05T09:12:16.114Z,9.83
2019-05-05T09:13:16.096Z,9.49
2019-05-05T09:14:16.084Z,9.26
2019-05-05T09:15:16.089Z,9.10
2019-05-05T09:16:16.061Z,9.22
2019-05-05T09:17:16.067Z,9.32
2019-05-05T09:18:16.041Z,9.00
2019-05-05T09:19:16.035Z,9.04
2019-05-05T09:20:16.018Z,9.23
2019-05-05T09:21:16.012Z,9.32
2019-05-05T09:22:16.014Z,9.50
2019-05-05T09:23:15.985Z,9.73
2019-05-05T09:24:15.974Z,9.27
2019-05-05T09:25:15.964Z,8.89
2019-05-05T09:26:15.952Z,8.65
2019-05-05T09:27:15.968Z,8.32
2019-05-05T09:28:15.939Z,8.00
2019-05-05T09:29:15.923Z,7.92
2019-05-05T09:30:15.910Z,7.82
2019-05-05T09:31:15.901Z,7.73
2019-05-05T09:32:15.899Z,7.63
2019-05-05T09:33:18.269Z,7.73
2019-05-05T09:34:15.866Z,7.55
2019-05-05T09:35:15.859Z,7.63
2019-05-05T09:36:15.861Z,7.48
2019-05-05T09:37:15.882Z,7.47
2019-05-05T09:38:15.823Z,7.41
2019-05-05T09:39:15.855Z,7.27
2019-05-05T09:40:15.805Z,7.15
2019-05-05T09:41:15.792Z,7.12
2019-05-05T09:42:15.791Z,6.96
2019-05-05T09:43:15.771Z,6.91
2019-05-05T09:44:15.781Z,6.89
2019-05-05T09:45:15.748Z,6.79
2019-05-05T09:46:15.742Z,6.65
2019-05-05T09:47:15.793Z,6.72
2019-05-05T09:48:15.728Z,6.58
2019-05-05T09:49:15.707Z,6.61
2019-05-05T09:50:15.696Z,6.61
2019-05-05T09:51:15.689Z,6.61
2019-05-05T09:52:15.683Z,6.72
2019-05-05T09:53:15.696Z,6.91
2019-05-05T09:54:17.462Z,6.97
2019-05-05T09:55:15.641Z,7.21
2019-05-05T09:56:15.630Z,7.27
2019-05-05T09:57:15.624Z,7.44
2019-05-05T09:58:15.640Z,7.55
2019-05-05T09:59:15.606Z,7.69
2019-05-05T10:00:15.591Z,7.79
2019-05-05T10:01:15.592Z,7.79
2019-05-05T10:02:15.567Z,7.51
2019-05-05T10:03:15.573Z,7.82
2019-05-05T10:04:15.571Z,8.13
2019-05-05T10:05:15.566Z,8.07
2019-05-05T10:06:15.539Z,8.14
2019-05-05T10:07:15.513Z,8.29
2019-05-05T10:08:15.513Z,8.28
2019-05-05T10:09:15.491Z,8.32
2019-05-05T10:10:15.500Z,8.25
2019-05-05T10:11:16.625Z,8.17
2019-05-05T10:12:15.466Z,8.29
2019-05-05T10:13:15.479Z,8.32
2019-05-05T10:14:15.439Z,8.25
2019-05-05T10:15:15.455Z,7.96
2019-05-05T10:16:15.416Z,7.84
2019-05-05T10:17:15.438Z,7.79
2019-05-05T10:18:15.410Z,7.66
2019-05-05T10:19:15.403Z,7.34
2019-05-05T10:20:15.379Z,7.26
2019-05-05T10:21:17.782Z,7.18
2019-05-05T10:22:15.352Z,7.15
2019-05-05T10:23:15.441Z,7.00
2019-05-05T10:24:27.783Z,7.01
2019-05-05T10:25:16.338Z,6.96
2019-05-05T10:26:15.310Z,6.87
2019-05-05T10:27:15.297Z,6.50
2019-05-05T10:28:15.297Z,6.32
2019-05-05T10:29:15.345Z,6.11
2019-05-05T10:30:15.283Z,6.06
2019-05-05T10:31:15.276Z,6.01
2019-05-05T10:32:15.251Z,5.78
2019-05-05T10:33:15.247Z,5.58
2019-05-05T10:34:15.223Z,5.56
2019-05-05T10:35:15.261Z,5.59
2019-05-05T10:36:15.203Z,5.48
2019-05-05T10:37:15.200Z,5.58
2019-05-05T10:38:15.208Z,5.62
2019-05-05T10:39:15.175Z,5.80
2019-05-05T10:40:15.162Z,6.01
2019-05-05T10:41:15.162Z,6.19
2019-05-05T10:42:15.139Z,6.55
2019-05-05T10:43:15.140Z,6.83
2019-05-05T10:44:15.122Z,6.99
2019-05-05T10:45:15.121Z,7.29
2019-05-05T10:46:15.095Z,7.51
2019-05-05T10:47:15.090Z,7.86
2019-05-05T10:48:15.101Z,8.24
2019-05-05T10:49:15.063Z,8.45
2019-05-05T10:50:15.054Z,8.70
2019-05-05T10:51:15.044Z,8.88
2019-05-05T10:52:15.032Z,8.83
2019-05-05T10:53:15.063Z,8.67
2019-05-05T10:54:15.011Z,8.93
2019-05-05T10:55:14.999Z,9.13
2019-05-05T10:56:14.990Z,9.41
2019-05-05T10:57:18.319Z,9.63
2019-05-05T10:58:14.978Z,9.89
2019-05-05T10:59:14.985Z,9.95
2019-05-05T11:00:15.654Z,10.01
2019-05-05T11:01:14.941Z,10.25
2019-05-05T11:02:14.923Z,10.51
2019-05-05T11:03:15.291Z,10.72
2019-05-05T11:04:14.949Z,11.09
2019-05-05T11:05:14.936Z,12.56
2019-05-05T11:06:14.886Z,13.48
2019-05-05T11:07:14.869Z,13.75
2019-05-05T11:08:14.862Z,13.43
2019-05-05T11:09:14.861Z,12.88
2019-05-05T11:10:14.844Z,12.52
2019-05-05T11:11:14.832Z,12.01
2019-05-05T11:12:14.847Z,11.88
2019-05-05T11:13:14.805Z,11.57
2019-05-05T11:14:14.815Z,11.23
2019-05-05T11:15:14.784Z,11.11
2019-05-05T11:16:14.785Z,10.90
2019-05-05T11:17:14.760Z,10.76
2019-05-05T11:18:15.222Z,10.83
2019-05-05T11:19:14.760Z,10.81
2019-05-05T11:20:14.728Z,10.76
2019-05-05T11:21:14.718Z,10.93
2019-05-05T11:22:14.890Z,11.03
2019-05-05T11:23:15.221Z,11.17
2019-05-05T11:24:14.758Z,12.33
2019-05-05T11:25:14.673Z,12.15
2019-05-05T11:26:14.664Z,11.79
2019-05-05T11:27:14.679Z,12.16
2019-05-05T11:28:14.647Z,12.94
2019-05-05T11:29:14.641Z,13.38
2019-05-05T11:30:14.666Z,13.46
2019-05-05T11:31:14.621Z,13.32
2019-05-05T11:32:15.275Z,12.98
2019-05-05T11:33:14.587Z,12.55
2019-05-05T11:34:14.588Z,11.72
2019-05-05T11:35:14.568Z,11.09
2019-05-05T11:36:14.565Z,10.60
2019-05-05T11:37:14.546Z,10.25
2019-05-05T11:38:14.550Z,10.13
2019-05-05T11:39:14.887Z,9.98
2019-05-05T11:40:14.615Z,9.71
2019-05-05T11:41:14.633Z,9.56
2019-05-05T11:42:14.693Z,9.34
2019-05-05T11:43:14.487Z,9.22
2019-05-05T11:44:15.175Z,9.37
2019-05-05T11:45:14.927Z,9.22
2019-05-05T11:46:14.452Z,9.06
2019-05-05T11:47:14.469Z,9.04
2019-05-05T11:48:14.893Z,8.97
2019-05-05T11:49:14.431Z,9.45
2019-05-05T11:50:14.406Z,10.02
2019-05-05T11:51:15.079Z,10.63
2019-05-05T11:52:14.393Z,11.13
2019-05-05T11:53:14.662Z,11.93
2019-05-05T11:54:14.394Z,12.48
2019-05-05T11:55:14.986Z,12.63
2019-05-05T11:56:14.617Z,13.12
2019-05-05T11:57:14.333Z,13.61
2019-05-05T11:58:14.564Z,14.13
2019-05-05T11:59:14.576Z,15.00
2019-05-05T12:00:14.300Z,14.75
2019-05-05T12:01:14.301Z,14.93
2019-05-05T12:02:14.281Z,15.09
2019-05-05T12:03:14.575Z,14.80
2019-05-05T12:04:14.676Z,15.38
2019-05-05T12:05:14.246Z,16.16
2019-05-05T12:06:14.815Z,16.80
2019-05-05T12:07:14.688Z,16.47
2019-05-05T12:08:14.756Z,14.87
2019-05-05T12:09:14.231Z,13.71
2019-05-05T12:10:14.211Z,13.06
2019-05-05T12:11:15.069Z,12.51
2019-05-05T12:12:14.362Z,11.72
2019-05-05T12:13:14.801Z,11.30
2019-05-05T12:14:14.403Z,10.78
2019-05-05T12:15:14.174Z,10.51
2019-05-05T12:16:14.127Z,10.39
2019-05-05T12:17:14.120Z,10.29
2019-05-05T12:18:14.488Z,10.02
2019-05-05T12:19:14.120Z,9.48
2019-05-05T12:20:14.082Z,9.24
2019-05-05T12:21:14.187Z,9.08
2019-05-05T12:22:14.060Z,9.22
2019-05-05T12:23:14.096Z,9.34
2019-05-05T12:24:14.381Z,9.44
2019-05-05T12:25:25.500Z,9.65
2019-05-05T12:26:15.074Z,9.60
2019-05-05T12:27:14.189Z,9.48
2019-05-05T12:28:14.018Z,9.37
2019-05-05T12:29:14.165Z,9.44
2019-05-05T12:30:14.220Z,9.52
2019-05-05T12:31:14.199Z,9.42
2019-05-05T12:32:14.866Z,9.55
2019-05-05T12:33:13.942Z,9.65
2019-05-05T12:34:13.982Z,9.70
2019-05-05T12:35:14.833Z,9.48
2019-05-05T12:36:15.057Z,9.34
2019-05-05T12:37:14.325Z,9.32
2019-05-05T12:38:13.890Z,9.42
2019-05-05T12:39:14.278Z,9.34
2019-05-05T12:40:14.433Z,9.37
2019-05-05T12:41:14.758Z,9.37
2019-05-05T12:42:14.143Z,9.24
2019-05-05T12:43:14.245Z,9.12
2019-05-05T12:44:14.366Z,8.89
2019-05-05T12:45:13.844Z,8.76
2019-05-05T12:46:13.873Z,8.68
2019-05-05T12:47:14.412Z,8.63
2019-05-05T12:48:13.783Z,8.61
2019-05-05T12:49:13.991Z,8.60
2019-05-05T12:50:13.769Z,8.47
2019-05-05T12:51:14.680Z,8.45
2019-05-05T12:52:13.997Z,8.68
2019-05-05T12:53:14.509Z,8.79
2019-05-05T12:54:14.677Z,9.03
2019-05-05T12:55:14.326Z,8.98
2019-05-05T12:56:14.586Z,9.17
2019-05-05T12:57:13.833Z,9.41
2019-05-05T12:58:13.954Z,9.67
2019-05-05T12:59:14.276Z,9.99
2019-05-05T13:00:14.598Z,10.17
2019-05-05T13:01:14.286Z,10.32
2019-05-05T13:02:14.269Z,10.34
2019-05-05T13:03:13.621Z,9.96
2019-05-05T13:04:14.208Z,9.95
2019-05-05T13:05:14.465Z,9.86
2019-05-05T13:06:14.603Z,10.09
2019-05-05T13:07:13.703Z,10.06
2019-05-05T13:08:14.310Z,10.01
2019-05-05T13:09:13.654Z,10.07
2019-05-05T13:10:13.756Z,10.07
2019-05-05T13:11:13.532Z,10.20
2019-05-05T13:12:15.006Z,10.35
2019-05-05T13:13:14.062Z,10.49
2019-05-05T13:14:14.246Z,10.58
2019-05-05T13:15:14.344Z,10.78